sensor_id;sensor_type;location;lat;lon;timestamp;P1;durP1;ratioP1;P2;durP2;ratioP2
68126;SDS011;54931;52.098;21.006;2023-11-19T00:00:09;66.90;;;21.60;;
68126;SDS011;54931;52.098;21.006;2023-11-19T00:03:02;64.30;;;19.70;;
68126;SDS011;54931;52.098;21.006;2023-11-19T00:05:30;58.40;;;19.60;;
68126;SDS011;54931;52.098;21.006;2023-11-19T00:07:57;68.40;;;20.00;;
68126;SDS011;54931;52.098;21.006;2023-11-19T00:10:26;53.60;;;17.40;;
68126;SDS011;54931;52.098;21.006;2023-11-19T00:12:53;58.20;;;18.90;;
68126;SDS011;54931;52.098;21.006;2023-11-19T00:15:21;72.80;;;22.20;;
68126;SDS011;54931;52.098;21.006;2023-11-19T00:17:48;66.70;;;20.30;;
68126;SDS011;54931;52.098;21.006;2023-11-19T00:20:20;70.30;;;23.20;;
68126;SDS011;54931;52.098;21.006;2023-11-19T00:22:50;69.00;;;21.30;;
68126;SDS011;54931;52.098;21.006;2023-11-19T00:25:19;58.00;;;20.20;;
68126;SDS011;54931;52.098;21.006;2023-11-19T00:27:48;58.20;;;19.60;;
68126;SDS011;54931;52.098;21.006;2023-11-19T00:30:17;63.90;;;20.50;;
68126;SDS011;54931;52.098;21.006;2023-11-19T00:32:45;54.00;;;17.90;;
68126;SDS011;54931;52.098;21.006;2023-11-19T00:35:13;57.10;;;18.90;;
68126;SDS011;54931;52.098;21.006;2023-11-19T00:37:43;59.10;;;18.90;;
68126;SDS011;54931;52.098;21.006;2023-11-19T00:40:12;59.50;;;19.70;;
68126;SDS011;54931;52.098;21.006;2023-11-19T00:42:40;59.00;;;18.20;;
68126;SDS011;54931;52.098;21.006;2023-11-19T00:45:08;65.10;;;19.00;;
68126;SDS011;54931;52.098;21.006;2023-11-19T00:47:37;69.20;;;21.00;;
68126;SDS011;54931;52.098;21.006;2023-11-19T00:50:06;68.50;;;21.80;;
68126;SDS011;54931;52.098;21.006;2023-11-19T00:52:38;79.30;;;22.60;;
68126;SDS011;54931;52.098;21.006;2023-11-19T00:55:07;79.90;;;23.40;;
68126;SDS011;54931;52.098;21.006;2023-11-19T00:57:35;74.50;;;21.40;;
68126;SDS011;54931;52.098;21.006;2023-11-19T01:00:05;67.00;;;20.60;;
68126;SDS011;54931;52.098;21.006;2023-11-19T01:02:45;62.10;;;20.00;;
68126;SDS011;54931;52.098;21.006;2023-11-19T01:05:13;67.70;;;21.40;;
68126;SDS011;54931;52.098;21.006;2023-11-19T01:07:41;56.20;;;16.90;;
68126;SDS011;54931;52.098;21.006;2023-11-19T01:10:09;54.80;;;16.50;;
68126;SDS011;54931;52.098;21.006;2023-11-19T01:12:38;50.80;;;15.20;;
68126;SDS011;54931;52.098;21.006;2023-11-19T01:15:06;59.10;;;18.20;;
68126;SDS011;54931;52.098;21.006;2023-11-19T01:17:37;45.00;;;15.50;;
68126;SDS011;54931;52.098;21.006;2023-11-19T01:20:06;50.50;;;16.60;;
68126;SDS011;54931;52.098;21.006;2023-11-19T01:22:34;63.90;;;18.40;;
68126;SDS011;54931;52.098;21.006;2023-11-19T01:25:02;63.90;;;19.00;;
68126;SDS011;54931;52.098;21.006;2023-11-19T01:27:33;47.80;;;16.60;;
68126;SDS011;54931;52.098;21.006;2023-11-19T01:30:04;59.20;;;18.20;;
68126;SDS011;54931;52.098;21.006;2023-11-19T01:32:32;54.70;;;17.00;;
68126;SDS011;54931;52.098;21.006;2023-11-19T01:35:00;55.70;;;17.00;;
68126;SDS011;54931;52.098;21.006;2023-11-19T01:37:28;52.60;;;17.10;;
68126;SDS011;54931;52.098;21.006;2023-11-19T01:39:56;55.00;;;17.70;;
68126;SDS011;54931;52.098;21.006;2023-11-19T01:42:24;50.40;;;15.90;;
68126;SDS011;54931;52.098;21.006;2023-11-19T01:44:59;64.80;;;20.70;;
68126;SDS011;54931;52.098;21.006;2023-11-19T01:47:30;61.10;;;17.90;;
68126;SDS011;54931;52.098;21.006;2023-11-19T01:49:59;57.60;;;17.90;;
68126;SDS011;54931;52.098;21.006;2023-11-19T01:52:27;53.90;;;17.50;;
68126;SDS011;54931;52.098;21.006;2023-11-19T01:54:55;64.00;;;20.20;;
68126;SDS011;54931;52.098;21.006;2023-11-19T01:57:23;48.00;;;16.40;;
68126;SDS011;54931;52.098;21.006;2023-11-19T01:59:52;55.90;;;18.40;;
68126;SDS011;54931;52.098;21.006;2023-11-19T02:02:21;59.70;;;18.70;;
68126;SDS011;54931;52.098;21.006;2023-11-19T02:04:51;60.80;;;18.30;;
68126;SDS011;54931;52.098;21.006;2023-11-19T02:07:20;60.20;;;18.50;;
68126;SDS011;54931;52.098;21.006;2023-11-19T02:09:47;58.60;;;18.60;;
68126;SDS011;54931;52.098;21.006;2023-11-19T02:12:15;43.00;;;13.80;;
68126;SDS011;54931;52.098;21.006;2023-11-19T02:14:42;54.40;;;17.00;;
68126;SDS011;54931;52.098;21.006;2023-11-19T02:17:30;59.30;;;19.40;;
68126;SDS011;54931;52.098;21.006;2023-11-19T02:19:58;47.70;;;15.40;;
68126;SDS011;54931;52.098;21.006;2023-11-19T02:22:26;61.00;;;18.60;;
68126;SDS011;54931;52.098;21.006;2023-11-19T02:25:00;63.60;;;20.70;;
68126;SDS011;54931;52.098;21.006;2023-11-19T02:27:51;65.30;;;19.10;;
68126;SDS011;54931;52.098;21.006;2023-11-19T02:30:24;59.70;;;17.30;;
68126;SDS011;54931;52.098;21.006;2023-11-19T02:32:56;61.30;;;19.10;;
68126;SDS011;54931;52.098;21.006;2023-11-19T02:35:25;46.90;;;13.70;;
68126;SDS011;54931;52.098;21.006;2023-11-19T02:37:59;58.50;;;17.80;;
68126;SDS011;54931;52.098;21.006;2023-11-19T02:40:28;60.20;;;17.40;;
68126;SDS011;54931;52.098;21.006;2023-11-19T02:42:56;48.40;;;15.00;;
68126;SDS011;54931;52.098;21.006;2023-11-19T02:45:25;58.90;;;16.00;;
68126;SDS011;54931;52.098;21.006;2023-11-19T02:47:53;56.30;;;16.90;;
68126;SDS011;54931;52.098;21.006;2023-11-19T02:50:22;61.20;;;17.80;;
68126;SDS011;54931;52.098;21.006;2023-11-19T02:52:54;47.60;;;14.70;;
68126;SDS011;54931;52.098;21.006;2023-11-19T02:55:25;49.70;;;16.10;;
68126;SDS011;54931;52.098;21.006;2023-11-19T02:57:55;54.90;;;16.00;;
68126;SDS011;54931;52.098;21.006;2023-11-19T03:00:23;51.60;;;15.40;;
68126;SDS011;54931;52.098;21.006;2023-11-19T03:02:51;48.30;;;16.20;;
68126;SDS011;54931;52.098;21.006;2023-11-19T03:05:37;42.90;;;14.10;;
68126;SDS011;54931;52.098;21.006;2023-11-19T03:08:04;49.40;;;14.10;;
68126;SDS011;54931;52.098;21.006;2023-11-19T03:10:32;50.80;;;16.80;;
68126;SDS011;54931;52.098;21.006;2023-11-19T03:13:02;51.80;;;15.90;;
68126;SDS011;54931;52.098;21.006;2023-11-19T03:15:30;47.60;;;15.10;;
68126;SDS011;54931;52.098;21.006;2023-11-19T03:17:58;51.60;;;15.80;;
68126;SDS011;54931;52.098;21.006;2023-11-19T03:20:26;51.60;;;15.70;;
68126;SDS011;54931;52.098;21.006;2023-11-19T03:22:54;55.00;;;16.00;;
68126;SDS011;54931;52.098;21.006;2023-11-19T03:25:22;42.70;;;13.10;;
68126;SDS011;54931;52.098;21.006;2023-11-19T03:27:49;55.80;;;17.00;;
68126;SDS011;54931;52.098;21.006;2023-11-19T03:30:16;49.50;;;16.80;;
68126;SDS011;54931;52.098;21.006;2023-11-19T03:32:44;58.90;;;15.60;;
68126;SDS011;54931;52.098;21.006;2023-11-19T03:35:12;57.30;;;18.20;;
68126;SDS011;54931;52.098;21.006;2023-11-19T03:37:39;50.90;;;15.70;;
68126;SDS011;54931;52.098;21.006;2023-11-19T03:40:07;46.60;;;15.00;;
68126;SDS011;54931;52.098;21.006;2023-11-19T03:42:35;52.30;;;15.50;;
68126;SDS011;54931;52.098;21.006;2023-11-19T03:45:03;46.30;;;14.10;;
68126;SDS011;54931;52.098;21.006;2023-11-19T03:47:31;46.60;;;15.90;;
68126;SDS011;54931;52.098;21.006;2023-11-19T03:49:59;40.70;;;13.00;;
68126;SDS011;54931;52.098;21.006;2023-11-19T03:52:26;49.60;;;14.90;;
68126;SDS011;54931;52.098;21.006;2023-11-19T03:54:56;55.60;;;17.30;;
68126;SDS011;54931;52.098;21.006;2023-11-19T03:57:24;44.00;;;14.00;;
68126;SDS011;54931;52.098;21.006;2023-11-19T03:59:52;51.50;;;15.70;;
68126;SDS011;54931;52.098;21.006;2023-11-19T04:02:19;47.90;;;15.40;;
68126;SDS011;54931;52.098;21.006;2023-11-19T04:04:47;37.70;;;12.40;;
68126;SDS011;54931;52.098;21.006;2023-11-19T04:07:15;51.40;;;17.60;;
68126;SDS011;54931;52.098;21.006;2023-11-19T04:09:42;43.80;;;14.20;;
68126;SDS011;54931;52.098;21.006;2023-11-19T04:12:10;45.50;;;14.50;;
68126;SDS011;54931;52.098;21.006;2023-11-19T04:14:37;47.90;;;14.40;;
68126;SDS011;54931;52.098;21.006;2023-11-19T04:17:05;45.50;;;13.80;;
68126;SDS011;54931;52.098;21.006;2023-11-19T04:19:32;52.60;;;17.70;;
68126;SDS011;54931;52.098;21.006;2023-11-19T04:22:00;43.30;;;14.30;;
68126;SDS011;54931;52.098;21.006;2023-11-19T04:24:27;44.60;;;15.00;;
68126;SDS011;54931;52.098;21.006;2023-11-19T04:26:55;45.90;;;14.70;;
68126;SDS011;54931;52.098;21.006;2023-11-19T04:29:22;43.70;;;14.60;;
68126;SDS011;54931;52.098;21.006;2023-11-19T04:31:50;48.70;;;15.70;;
68126;SDS011;54931;52.098;21.006;2023-11-19T04:34:17;48.90;;;15.10;;
68126;SDS011;54931;52.098;21.006;2023-11-19T04:36:45;44.60;;;14.50;;
68126;SDS011;54931;52.098;21.006;2023-11-19T04:39:13;43.40;;;14.50;;
68126;SDS011;54931;52.098;21.006;2023-11-19T04:41:46;47.80;;;15.10;;
68126;SDS011;54931;52.098;21.006;2023-11-19T04:44:20;30.10;;;8.50;;
68126;SDS011;54931;52.098;21.006;2023-11-19T04:46:49;54.40;;;16.70;;
68126;SDS011;54931;52.098;21.006;2023-11-19T04:49:16;54.30;;;16.60;;
68126;SDS011;54931;52.098;21.006;2023-11-19T04:51:46;56.20;;;18.80;;
68126;SDS011;54931;52.098;21.006;2023-11-19T04:54:18;45.20;;;14.80;;
68126;SDS011;54931;52.098;21.006;2023-11-19T04:56:46;54.80;;;16.80;;
68126;SDS011;54931;52.098;21.006;2023-11-19T04:59:14;45.20;;;14.30;;
68126;SDS011;54931;52.098;21.006;2023-11-19T05:01:46;53.30;;;16.10;;
68126;SDS011;54931;52.098;21.006;2023-11-19T05:04:15;38.40;;;12.80;;
68126;SDS011;54931;52.098;21.006;2023-11-19T05:06:42;40.50;;;12.90;;
68126;SDS011;54931;52.098;21.006;2023-11-19T05:09:10;40.00;;;12.80;;
68126;SDS011;54931;52.098;21.006;2023-11-19T05:11:40;35.30;;;9.90;;
68126;SDS011;54931;52.098;21.006;2023-11-19T05:14:07;49.70;;;15.10;;
68126;SDS011;54931;52.098;21.006;2023-11-19T05:16:39;57.90;;;16.20;;
68126;SDS011;54931;52.098;21.006;2023-11-19T05:19:08;53.50;;;15.10;;
68126;SDS011;54931;52.098;21.006;2023-11-19T05:21:36;57.30;;;18.10;;
68126;SDS011;54931;52.098;21.006;2023-11-19T05:24:04;52.50;;;16.30;;
68126;SDS011;54931;52.098;21.006;2023-11-19T05:26:31;49.60;;;13.80;;
68126;SDS011;54931;52.098;21.006;2023-11-19T05:28:59;46.50;;;14.00;;
68126;SDS011;54931;52.098;21.006;2023-11-19T05:31:26;44.70;;;13.60;;
68126;SDS011;54931;52.098;21.006;2023-11-19T05:33:54;53.50;;;16.30;;
68126;SDS011;54931;52.098;21.006;2023-11-19T05:36:21;25.70;;;9.00;;
68126;SDS011;54931;52.098;21.006;2023-11-19T05:38:49;26.30;;;9.00;;
68126;SDS011;54931;52.098;21.006;2023-11-19T05:41:16;36.50;;;12.20;;
68126;SDS011;54931;52.098;21.006;2023-11-19T05:43:44;40.50;;;14.00;;
68126;SDS011;54931;52.098;21.006;2023-11-19T05:46:12;34.90;;;12.60;;
68126;SDS011;54931;52.098;21.006;2023-11-19T05:48:40;41.40;;;14.30;;
68126;SDS011;54931;52.098;21.006;2023-11-19T05:51:08;38.50;;;11.20;;
68126;SDS011;54931;52.098;21.006;2023-11-19T05:53:35;28.80;;;10.70;;
68126;SDS011;54931;52.098;21.006;2023-11-19T05:56:03;28.20;;;9.60;;
68126;SDS011;54931;52.098;21.006;2023-11-19T05:58:31;21.60;;;8.40;;
68126;SDS011;54931;52.098;21.006;2023-11-19T06:00:59;11.50;;;5.60;;
68126;SDS011;54931;52.098;21.006;2023-11-19T06:03:30;19.90;;;6.50;;
68126;SDS011;54931;52.098;21.006;2023-11-19T06:05:58;24.70;;;8.00;;
68126;SDS011;54931;52.098;21.006;2023-11-19T06:08:26;19.10;;;7.40;;
68126;SDS011;54931;52.098;21.006;2023-11-19T06:10:54;26.80;;;9.20;;
68126;SDS011;54931;52.098;21.006;2023-11-19T06:13:21;23.80;;;7.20;;
68126;SDS011;54931;52.098;21.006;2023-11-19T06:15:49;22.50;;;7.90;;
68126;SDS011;54931;52.098;21.006;2023-11-19T06:18:18;23.50;;;9.30;;
68126;SDS011;54931;52.098;21.006;2023-11-19T06:20:47;20.10;;;7.50;;
68126;SDS011;54931;52.098;21.006;2023-11-19T06:23:15;15.20;;;6.10;;
68126;SDS011;54931;52.098;21.006;2023-11-19T06:25:43;22.70;;;8.90;;
68126;SDS011;54931;52.098;21.006;2023-11-19T06:28:10;17.30;;;6.70;;
68126;SDS011;54931;52.098;21.006;2023-11-19T06:30:38;14.80;;;6.30;;
68126;SDS011;54931;52.098;21.006;2023-11-19T06:33:06;14.80;;;7.60;;
68126;SDS011;54931;52.098;21.006;2023-11-19T06:35:34;14.40;;;6.10;;
68126;SDS011;54931;52.098;21.006;2023-11-19T06:38:04;14.80;;;5.70;;
68126;SDS011;54931;52.098;21.006;2023-11-19T06:40:32;16.90;;;7.80;;
68126;SDS011;54931;52.098;21.006;2023-11-19T06:43:02;17.90;;;7.30;;
68126;SDS011;54931;52.098;21.006;2023-11-19T06:45:32;17.70;;;7.40;;
68126;SDS011;54931;52.098;21.006;2023-11-19T06:48:03;11.10;;;4.60;;
68126;SDS011;54931;52.098;21.006;2023-11-19T06:50:32;15.10;;;6.50;;
68126;SDS011;54931;52.098;21.006;2023-11-19T06:52:59;17.10;;;5.90;;
68126;SDS011;54931;52.098;21.006;2023-11-19T06:55:27;13.10;;;5.30;;
68126;SDS011;54931;52.098;21.006;2023-11-19T06:57:55;9.80;;;4.90;;
68126;SDS011;54931;52.098;21.006;2023-11-19T07:00:23;20.30;;;7.70;;
68126;SDS011;54931;52.098;21.006;2023-11-19T07:02:50;14.70;;;5.20;;
68126;SDS011;54931;52.098;21.006;2023-11-19T07:05:18;13.80;;;6.30;;
68126;SDS011;54931;52.098;21.006;2023-11-19T07:07:46;20.90;;;8.70;;
68126;SDS011;54931;52.098;21.006;2023-11-19T07:10:14;19.90;;;7.50;;
68126;SDS011;54931;52.098;21.006;2023-11-19T07:12:42;23.30;;;9.10;;
68126;SDS011;54931;52.098;21.006;2023-11-19T07:15:11;22.20;;;8.20;;
68126;SDS011;54931;52.098;21.006;2023-11-19T07:17:39;23.00;;;8.00;;
68126;SDS011;54931;52.098;21.006;2023-11-19T07:20:07;14.20;;;5.70;;
68126;SDS011;54931;52.098;21.006;2023-11-19T07:22:36;22.90;;;8.90;;
68126;SDS011;54931;52.098;21.006;2023-11-19T07:25:06;27.00;;;10.20;;
68126;SDS011;54931;52.098;21.006;2023-11-19T07:27:33;26.10;;;9.80;;
68126;SDS011;54931;52.098;21.006;2023-11-19T07:30:01;20.50;;;7.40;;
68126;SDS011;54931;52.098;21.006;2023-11-19T07:32:29;22.50;;;8.00;;
68126;SDS011;54931;52.098;21.006;2023-11-19T07:34:57;23.70;;;9.30;;
68126;SDS011;54931;52.098;21.006;2023-11-19T07:37:25;26.50;;;9.80;;
68126;SDS011;54931;52.098;21.006;2023-11-19T07:39:53;22.30;;;8.80;;
68126;SDS011;54931;52.098;21.006;2023-11-19T07:42:21;24.20;;;9.30;;
68126;SDS011;54931;52.098;21.006;2023-11-19T07:44:48;22.10;;;8.70;;
68126;SDS011;54931;52.098;21.006;2023-11-19T07:47:16;19.70;;;7.60;;
68126;SDS011;54931;52.098;21.006;2023-11-19T07:49:44;28.20;;;10.70;;
68126;SDS011;54931;52.098;21.006;2023-11-19T07:52:11;20.60;;;7.60;;
68126;SDS011;54931;52.098;21.006;2023-11-19T07:54:39;20.20;;;8.70;;
68126;SDS011;54931;52.098;21.006;2023-11-19T07:57:07;23.60;;;9.50;;
68126;SDS011;54931;52.098;21.006;2023-11-19T07:59:34;22.60;;;9.00;;
68126;SDS011;54931;52.098;21.006;2023-11-19T08:02:02;14.10;;;6.40;;
68126;SDS011;54931;52.098;21.006;2023-11-19T08:04:32;17.20;;;7.10;;
68126;SDS011;54931;52.098;21.006;2023-11-19T08:07:00;24.60;;;9.50;;
68126;SDS011;54931;52.098;21.006;2023-11-19T08:09:28;26.00;;;10.80;;
68126;SDS011;54931;52.098;21.006;2023-11-19T08:11:56;23.80;;;9.40;;
68126;SDS011;54931;52.098;21.006;2023-11-19T08:14:23;23.50;;;8.80;;
68126;SDS011;54931;52.098;21.006;2023-11-19T08:16:51;14.90;;;7.10;;
68126;SDS011;54931;52.098;21.006;2023-11-19T08:19:20;24.70;;;9.40;;
68126;SDS011;54931;52.098;21.006;2023-11-19T08:21:47;20.20;;;8.00;;
68126;SDS011;54931;52.098;21.006;2023-11-19T08:24:15;22.20;;;9.20;;
68126;SDS011;54931;52.098;21.006;2023-11-19T08:26:43;22.40;;;9.30;;
68126;SDS011;54931;52.098;21.006;2023-11-19T08:29:10;24.00;;;8.70;;
68126;SDS011;54931;52.098;21.006;2023-11-19T08:31:38;23.10;;;8.90;;
68126;SDS011;54931;52.098;21.006;2023-11-19T08:34:06;26.90;;;8.90;;
68126;SDS011;54931;52.098;21.006;2023-11-19T08:36:36;21.20;;;8.30;;
68126;SDS011;54931;52.098;21.006;2023-11-19T08:39:04;35.20;;;14.10;;
68126;SDS011;54931;52.098;21.006;2023-11-19T08:41:31;35.60;;;13.10;;
68126;SDS011;54931;52.098;21.006;2023-11-19T08:43:59;30.40;;;12.60;;
68126;SDS011;54931;52.098;21.006;2023-11-19T08:46:27;21.80;;;8.90;;
68126;SDS011;54931;52.098;21.006;2023-11-19T08:48:54;20.40;;;8.50;;
68126;SDS011;54931;52.098;21.006;2023-11-19T08:51:25;26.70;;;10.50;;
68126;SDS011;54931;52.098;21.006;2023-11-19T08:53:52;20.30;;;9.40;;
68126;SDS011;54931;52.098;21.006;2023-11-19T08:56:20;11.60;;;5.40;;
68126;SDS011;54931;52.098;21.006;2023-11-19T08:58:48;23.30;;;9.10;;
68126;SDS011;54931;52.098;21.006;2023-11-19T09:01:16;15.90;;;8.00;;
68126;SDS011;54931;52.098;21.006;2023-11-19T09:03:44;24.00;;;9.20;;
68126;SDS011;54931;52.098;21.006;2023-11-19T09:06:11;18.80;;;8.40;;
68126;SDS011;54931;52.098;21.006;2023-11-19T09:08:39;22.10;;;9.20;;
68126;SDS011;54931;52.098;21.006;2023-11-19T09:11:07;12.80;;;5.60;;
68126;SDS011;54931;52.098;21.006;2023-11-19T09:13:36;26.60;;;9.70;;
68126;SDS011;54931;52.098;21.006;2023-11-19T09:16:04;19.60;;;8.80;;
68126;SDS011;54931;52.098;21.006;2023-11-19T09:18:32;28.10;;;10.50;;
68126;SDS011;54931;52.098;21.006;2023-11-19T09:21:00;25.40;;;8.00;;
68126;SDS011;54931;52.098;21.006;2023-11-19T09:23:29;22.40;;;8.90;;
68126;SDS011;54931;52.098;21.006;2023-11-19T09:26:00;14.00;;;6.90;;
68126;SDS011;54931;52.098;21.006;2023-11-19T09:28:28;14.20;;;6.10;;
68126;SDS011;54931;52.098;21.006;2023-11-19T09:30:56;23.00;;;10.20;;
68126;SDS011;54931;52.098;21.006;2023-11-19T09:33:24;20.50;;;8.10;;
68126;SDS011;54931;52.098;21.006;2023-11-19T09:35:52;12.70;;;6.10;;
68126;SDS011;54931;52.098;21.006;2023-11-19T09:38:20;26.60;;;10.20;;
68126;SDS011;54931;52.098;21.006;2023-11-19T09:40:49;24.80;;;9.40;;
68126;SDS011;54931;52.098;21.006;2023-11-19T09:43:18;24.60;;;8.60;;
68126;SDS011;54931;52.098;21.006;2023-11-19T09:45:50;16.30;;;7.70;;
68126;SDS011;54931;52.098;21.006;2023-11-19T09:48:19;25.10;;;10.90;;
68126;SDS011;54931;52.098;21.006;2023-11-19T09:50:48;23.50;;;9.60;;
68126;SDS011;54931;52.098;21.006;2023-11-19T09:53:16;20.50;;;9.40;;
68126;SDS011;54931;52.098;21.006;2023-11-19T09:55:46;30.50;;;11.50;;
68126;SDS011;54931;52.098;21.006;2023-11-19T09:58:15;21.70;;;8.90;;
68126;SDS011;54931;52.098;21.006;2023-11-19T10:00:45;21.50;;;8.20;;
68126;SDS011;54931;52.098;21.006;2023-11-19T10:03:14;25.70;;;10.70;;
68126;SDS011;54931;52.098;21.006;2023-11-19T10:05:42;23.20;;;9.70;;
68126;SDS011;54931;52.098;21.006;2023-11-19T10:08:11;22.80;;;10.10;;
68126;SDS011;54931;52.098;21.006;2023-11-19T10:10:40;21.70;;;8.90;;
68126;SDS011;54931;52.098;21.006;2023-11-19T10:13:09;18.30;;;8.30;;
68126;SDS011;54931;52.098;21.006;2023-11-19T10:15:39;22.10;;;9.10;;
68126;SDS011;54931;52.098;21.006;2023-11-19T10:18:09;24.70;;;10.10;;
68126;SDS011;54931;52.098;21.006;2023-11-19T10:20:41;17.80;;;7.00;;
68126;SDS011;54931;52.098;21.006;2023-11-19T10:23:11;25.80;;;9.40;;
68126;SDS011;54931;52.098;21.006;2023-11-19T10:25:39;14.60;;;6.30;;
68126;SDS011;54931;52.098;21.006;2023-11-19T10:28:08;18.80;;;8.70;;
68126;SDS011;54931;52.098;21.006;2023-11-19T10:30:36;27.80;;;10.50;;
68126;SDS011;54931;52.098;21.006;2023-11-19T10:33:11;20.80;;;8.30;;
68126;SDS011;54931;52.098;21.006;2023-11-19T10:35:53;27.70;;;11.20;;
68126;SDS011;54931;52.098;21.006;2023-11-19T10:38:21;23.10;;;10.10;;
68126;SDS011;54931;52.098;21.006;2023-11-19T10:40:51;21.00;;;9.70;;
68126;SDS011;54931;52.098;21.006;2023-11-19T10:43:19;16.50;;;5.70;;
68126;SDS011;54931;52.098;21.006;2023-11-19T10:45:49;22.40;;;9.00;;
68126;SDS011;54931;52.098;21.006;2023-11-19T10:48:18;30.10;;;10.80;;
68126;SDS011;54931;52.098;21.006;2023-11-19T10:50:53;24.10;;;11.90;;
68126;SDS011;54931;52.098;21.006;2023-11-19T10:53:24;22.10;;;8.50;;
68126;SDS011;54931;52.098;21.006;2023-11-19T10:55:55;16.10;;;7.70;;
68126;SDS011;54931;52.098;21.006;2023-11-19T10:58:26;17.00;;;8.70;;
68126;SDS011;54931;52.098;21.006;2023-11-19T11:00:57;27.50;;;11.30;;
68126;SDS011;54931;52.098;21.006;2023-11-19T11:03:39;21.10;;;9.50;;
68126;SDS011;54931;52.098;21.006;2023-11-19T11:06:08;33.20;;;13.40;;
68126;SDS011;54931;52.098;21.006;2023-11-19T11:08:37;31.70;;;12.10;;
68126;SDS011;54931;52.098;21.006;2023-11-19T11:11:08;20.70;;;10.00;;
68126;SDS011;54931;52.098;21.006;2023-11-19T11:13:41;21.30;;;8.10;;
68126;SDS011;54931;52.098;21.006;2023-11-19T11:16:10;14.40;;;7.40;;
68126;SDS011;54931;52.098;21.006;2023-11-19T11:18:38;26.80;;;10.20;;
68126;SDS011;54931;52.098;21.006;2023-11-19T11:21:12;26.30;;;12.60;;
68126;SDS011;54931;52.098;21.006;2023-11-19T11:36:06;14.70;;;7.90;;
68126;SDS011;54931;52.098;21.006;2023-11-19T11:38:48;25.20;;;10.40;;
68126;SDS011;54931;52.098;21.006;2023-11-19T11:41:21;33.80;;;12.50;;
68126;SDS011;54931;52.098;21.006;2023-11-19T11:43:51;21.00;;;9.20;;
68126;SDS011;54931;52.098;21.006;2023-11-19T11:49:04;24.10;;;10.20;;
68126;SDS011;54931;52.098;21.006;2023-11-19T11:54:25;25.10;;;10.90;;
68126;SDS011;54931;52.098;21.006;2023-11-19T11:57:20;23.00;;;9.80;;
68126;SDS011;54931;52.098;21.006;2023-11-19T11:59:50;18.20;;;7.80;;
68126;SDS011;54931;52.098;21.006;2023-11-19T12:02:22;26.00;;;10.60;;
68126;SDS011;54931;52.098;21.006;2023-11-19T12:04:51;19.90;;;9.10;;
68126;SDS011;54931;52.098;21.006;2023-11-19T12:07:23;18.20;;;7.60;;
68126;SDS011;54931;52.098;21.006;2023-11-19T12:10:12;28.70;;;11.60;;
68126;SDS011;54931;52.098;21.006;2023-11-19T12:12:40;32.90;;;12.30;;
68126;SDS011;54931;52.098;21.006;2023-11-19T12:15:09;26.60;;;10.70;;
68126;SDS011;54931;52.098;21.006;2023-11-19T12:17:41;35.80;;;13.10;;
68126;SDS011;54931;52.098;21.006;2023-11-19T12:20:13;33.20;;;12.00;;
68126;SDS011;54931;52.098;21.006;2023-11-19T12:22:42;29.70;;;12.00;;
68126;SDS011;54931;52.098;21.006;2023-11-19T12:25:11;26.90;;;10.90;;
68126;SDS011;54931;52.098;21.006;2023-11-19T12:27:41;21.80;;;8.80;;
68126;SDS011;54931;52.098;21.006;2023-11-19T12:30:32;36.70;;;14.00;;
68126;SDS011;54931;52.098;21.006;2023-11-19T12:33:07;24.50;;;8.90;;
68126;SDS011;54931;52.098;21.006;2023-11-19T12:35:46;22.50;;;8.80;;
68126;SDS011;54931;52.098;21.006;2023-11-19T12:38:21;27.60;;;11.70;;
68126;SDS011;54931;52.098;21.006;2023-11-19T12:41:09;18.20;;;7.70;;
68126;SDS011;54931;52.098;21.006;2023-11-19T12:43:45;24.20;;;10.20;;
68126;SDS011;54931;52.098;21.006;2023-11-19T12:46:22;21.20;;;9.10;;
68126;SDS011;54931;52.098;21.006;2023-11-19T12:48:51;23.70;;;9.80;;
68126;SDS011;54931;52.098;21.006;2023-11-19T12:51:19;28.20;;;11.20;;
68126;SDS011;54931;52.098;21.006;2023-11-19T12:53:56;30.10;;;10.70;;
68126;SDS011;54931;52.098;21.006;2023-11-19T12:56:25;28.60;;;11.40;;
68126;SDS011;54931;52.098;21.006;2023-11-19T12:58:53;32.40;;;13.30;;
68126;SDS011;54931;52.098;21.006;2023-11-19T13:01:20;15.90;;;6.60;;
68126;SDS011;54931;52.098;21.006;2023-11-19T13:03:49;15.10;;;6.50;;
68126;SDS011;54931;52.098;21.006;2023-11-19T13:06:18;27.90;;;10.90;;
68126;SDS011;54931;52.098;21.006;2023-11-19T13:08:49;22.90;;;9.30;;
68126;SDS011;54931;52.098;21.006;2023-11-19T13:11:34;19.20;;;6.30;;
68126;SDS011;54931;52.098;21.006;2023-11-19T13:14:04;27.10;;;10.80;;
68126;SDS011;54931;52.098;21.006;2023-11-19T13:16:32;29.90;;;10.20;;
68126;SDS011;54931;52.098;21.006;2023-11-19T13:19:00;26.90;;;9.90;;
68126;SDS011;54931;52.098;21.006;2023-11-19T13:21:28;26.60;;;11.10;;
68126;SDS011;54931;52.098;21.006;2023-11-19T13:23:59;25.40;;;10.50;;
68126;SDS011;54931;52.098;21.006;2023-11-19T13:26:27;22.50;;;11.00;;
68126;SDS011;54931;52.098;21.006;2023-11-19T13:28:55;17.00;;;6.50;;
68126;SDS011;54931;52.098;21.006;2023-11-19T13:31:23;28.20;;;10.70;;
68126;SDS011;54931;52.098;21.006;2023-11-19T13:33:51;24.10;;;9.80;;
68126;SDS011;54931;52.098;21.006;2023-11-19T13:36:19;33.40;;;12.90;;
68126;SDS011;54931;52.098;21.006;2023-11-19T13:38:47;22.20;;;9.90;;
68126;SDS011;54931;52.098;21.006;2023-11-19T13:41:15;22.10;;;9.70;;
68126;SDS011;54931;52.098;21.006;2023-11-19T13:43:43;30.10;;;11.80;;
68126;SDS011;54931;52.098;21.006;2023-11-19T13:46:11;29.00;;;12.40;;
68126;SDS011;54931;52.098;21.006;2023-11-19T13:48:39;28.00;;;11.00;;
68126;SDS011;54931;52.098;21.006;2023-11-19T13:51:07;25.20;;;9.90;;
68126;SDS011;54931;52.098;21.006;2023-11-19T13:53:37;23.30;;;9.10;;
68126;SDS011;54931;52.098;21.006;2023-11-19T13:56:06;26.40;;;11.30;;
68126;SDS011;54931;52.098;21.006;2023-11-19T13:58:34;21.70;;;9.10;;
68126;SDS011;54931;52.098;21.006;2023-11-19T14:01:02;32.60;;;12.40;;
68126;SDS011;54931;52.098;21.006;2023-11-19T14:03:30;23.30;;;8.70;;
68126;SDS011;54931;52.098;21.006;2023-11-19T14:05:58;22.00;;;9.50;;
68126;SDS011;54931;52.098;21.006;2023-11-19T14:08:26;31.90;;;12.10;;
68126;SDS011;54931;52.098;21.006;2023-11-19T14:10:55;21.40;;;9.00;;
68126;SDS011;54931;52.098;21.006;2023-11-19T14:13:24;40.80;;;15.70;;
68126;SDS011;54931;52.098;21.006;2023-11-19T14:15:52;34.30;;;11.60;;
68126;SDS011;54931;52.098;21.006;2023-11-19T14:18:19;22.60;;;9.20;;
68126;SDS011;54931;52.098;21.006;2023-11-19T14:20:47;38.30;;;14.10;;
68126;SDS011;54931;52.098;21.006;2023-11-19T14:23:15;25.20;;;10.50;;
68126;SDS011;54931;52.098;21.006;2023-11-19T14:25:43;27.30;;;12.20;;
68126;SDS011;54931;52.098;21.006;2023-11-19T14:28:11;31.80;;;10.40;;
68126;SDS011;54931;52.098;21.006;2023-11-19T14:30:39;38.00;;;13.90;;
68126;SDS011;54931;52.098;21.006;2023-11-19T14:33:08;26.70;;;11.10;;
68126;SDS011;54931;52.098;21.006;2023-11-19T14:35:36;27.40;;;9.90;;
68126;SDS011;54931;52.098;21.006;2023-11-19T14:38:04;21.10;;;9.00;;
68126;SDS011;54931;52.098;21.006;2023-11-19T14:40:34;30.90;;;11.90;;
68126;SDS011;54931;52.098;21.006;2023-11-19T14:43:02;25.00;;;10.10;;